createdAt,value
2019-03-18T00:02:19.768Z,100819.77
2019-03-18T00:04:52.600Z,100825.78
2019-03-18T00:07:23.919Z,100828.31
2019-03-18T00:09:55.151Z,100828.73
2019-03-18T00:12:26.422Z,100827.43
2019-03-18T00:15:01.499Z,100832.21
2019-03-18T00:17:30.669Z,100831.30
2019-03-18T00:20:01.949Z,100834.77
2019-03-18T00:22:33.151Z,100834.39
2019-03-18T00:25:06.257Z,100840.53
2019-03-18T00:27:37.565Z,100851.05
2019-03-18T00:30:21.562Z,100843.81
2019-03-18T00:32:53.528Z,100847.81
2019-03-18T00:35:24.776Z,100841.93
2019-03-18T00:37:55.987Z,100839.34
2019-03-18T00:40:27.237Z,100835.81
2019-03-18T00:42:58.527Z,100838.32
2019-03-18T00:45:29.726Z,100833.47
2019-03-18T00:48:01.013Z,100837.33
2019-03-18T00:50:32.315Z,100836.86
2019-03-18T00:53:03.627Z,100837.69
2019-03-18T00:55:34.929Z,100840.23
2019-03-18T00:58:06.150Z,100844.56
2019-03-18T01:00:37.430Z,100849.70
2019-03-18T01:03:08.683Z,100854.41
2019-03-18T01:05:40.015Z,100856.27
2019-03-18T01:08:12.965Z,100858.19
2019-03-18T01:10:44.224Z,100858.03
2019-03-18T01:13:15.405Z,100848.28
2019-03-18T01:15:46.676Z,100849.97
2019-03-18T01:18:17.845Z,100849.56
2019-03-18T01:20:49.172Z,100847.07
2019-03-18T01:23:20.366Z,100850.73
2019-03-18T01:25:52.834Z,100854.28
2019-03-18T01:28:24.128Z,100853.36
2019-03-18T01:30:55.471Z,100848.29
2019-03-18T01:33:27.469Z,100837.16
2019-03-18T01:35:58.622Z,100840.98
2019-03-18T01:38:29.933Z,100841.85
2019-03-18T01:41:01.159Z,100847.91
2019-03-18T01:43:32.414Z,100844.92
2019-03-18T01:46:03.811Z,100843.27
2019-03-18T01:48:35.107Z,100837.22
2019-03-18T01:51:06.513Z,100842.46
2019-03-18T01:53:37.764Z,100847.64
2019-03-18T01:56:08.998Z,100847.79
2019-03-18T01:58:40.346Z,100847.39
2019-03-18T02:01:11.566Z,100852.67
2019-03-18T02:03:42.833Z,100849.36
2019-03-18T02:06:14.081Z,100849.81
2019-03-18T02:08:45.349Z,100852.88
2019-03-18T02:11:16.653Z,100857.28
2019-03-18T02:13:47.995Z,100866.00
2019-03-18T02:16:19.391Z,100871.55
2019-03-18T02:18:50.641Z,100872.91
2019-03-18T02:21:21.947Z,100876.83
2019-03-18T02:23:53.212Z,100877.23
2019-03-18T02:26:24.500Z,100881.76
2019-03-18T02:28:55.795Z,100880.95
2019-03-18T02:31:27.157Z,100881.34
2019-03-18T02:33:58.530Z,100888.11
2019-03-18T02:36:29.861Z,100894.98
2019-03-18T02:39:02.307Z,100903.09
2019-03-18T02:41:34.678Z,100895.61
2019-03-18T02:44:05.982Z,100901.36
2019-03-18T02:46:37.255Z,100911.75
2019-03-18T02:49:09.744Z,100915.64
2019-03-18T02:51:41.039Z,100916.05
2019-03-18T02:54:12.288Z,100908.06
2019-03-18T02:56:43.652Z,100911.36
2019-03-18T02:59:14.933Z,100910.59
2019-03-18T03:01:46.182Z,100908.94
2019-03-18T03:04:17.459Z,100911.64
2019-03-18T03:06:48.681Z,100913.02
2019-03-18T03:09:20.008Z,100910.09
2019-03-18T03:11:51.239Z,100915.00
2019-03-18T03:14:22.447Z,100921.11
2019-03-18T03:16:53.731Z,100918.52
2019-03-18T03:19:24.950Z,100920.71
2019-03-18T03:21:56.256Z,100921.92
2019-03-18T03:24:27.464Z,100918.89
2019-03-18T03:26:58.909Z,100919.78
2019-03-18T03:29:32.099Z,100923.69
2019-03-18T03:32:03.284Z,100927.18
2019-03-18T03:34:34.492Z,100926.24
2019-03-18T03:37:05.871Z,100928.83
2019-03-18T03:39:37.288Z,100940.61
2019-03-18T03:42:08.597Z,100946.27
2019-03-18T03:44:39.898Z,100942.48
2019-03-18T03:47:11.443Z,100943.39
2019-03-18T03:49:42.992Z,100943.41
2019-03-18T03:52:14.308Z,100949.45
2019-03-18T03:54:45.600Z,100952.02
2019-03-18T03:57:16.890Z,100959.37
2019-03-18T03:59:48.241Z,100951.97
2019-03-18T04:02:19.526Z,100949.81
2019-03-18T04:04:50.800Z,100959.30
2019-03-18T04:07:22.096Z,100962.32
2019-03-18T04:09:53.431Z,100962.28
2019-03-18T04:12:24.637Z,100962.69
2019-03-18T04:14:55.849Z,100960.90
2019-03-18T04:17:27.186Z,100960.00
2019-03-18T04:19:58.369Z,100962.55
2019-03-18T04:22:29.590Z,100966.83
2019-03-18T04:25:00.869Z,100978.41
2019-03-18T04:27:32.213Z,100982.59
2019-03-18T04:30:06.326Z,100979.92
2019-03-18T04:32:37.588Z,100985.07
2019-03-18T04:35:08.803Z,100991.48
2019-03-18T04:37:40.272Z,100995.69
2019-03-18T04:40:12.438Z,100990.82
2019-03-18T04:42:43.714Z,100998.05
2019-03-18T04:45:14.874Z,101009.19
2019-03-18T04:47:46.319Z,101004.33
2019-03-18T04:50:17.538Z,101005.55
2019-03-18T04:52:49.143Z,101013.23
2019-03-18T04:55:20.410Z,101015.72
2019-03-18T04:57:51.760Z,101019.87
2019-03-18T05:00:22.888Z,101020.14
2019-03-18T05:02:54.167Z,101024.30
2019-03-18T05:05:26.137Z,101024.61
2019-03-18T05:07:57.420Z,101022.73
2019-03-18T05:10:28.771Z,101025.19
2019-03-18T05:12:59.984Z,101025.48
2019-03-18T05:15:31.239Z,101031.42
2019-03-18T05:18:02.522Z,101029.59
2019-03-18T05:20:33.806Z,101032.48
2019-03-18T05:23:05.138Z,101030.66
2019-03-18T05:25:36.378Z,101033.16
2019-03-18T05:28:07.791Z,101042.98
2019-03-18T05:30:39.132Z,101045.02
2019-03-18T05:33:10.580Z,101043.17
2019-03-18T05:35:41.798Z,101041.81
2019-03-18T05:38:13.150Z,101049.89
2019-03-18T05:40:44.332Z,101040.98
2019-03-18T05:43:15.686Z,101051.19
2019-03-18T05:45:46.906Z,101048.48
2019-03-18T05:48:19.422Z,101050.05
2019-03-18T05:50:50.751Z,101047.70
2019-03-18T05:53:22.000Z,101055.30
2019-03-18T05:55:53.447Z,101054.73
2019-03-18T05:58:24.919Z,101065.89
2019-03-18T06:00:56.030Z,101072.73
2019-03-18T06:03:27.281Z,101075.26
2019-03-18T06:05:58.496Z,101074.66
2019-03-18T06:08:29.722Z,101079.27
2019-03-18T06:11:01.463Z,101088.27
2019-03-18T06:13:32.821Z,101088.59
2019-03-18T06:16:04.156Z,101097.59
2019-03-18T06:18:35.288Z,101090.86
2019-03-18T06:21:06.726Z,101094.89
2019-03-18T06:23:37.923Z,101095.48
2019-03-18T06:26:10.422Z,101097.47
2019-03-18T06:28:43.263Z,101093.42
2019-03-18T06:31:14.464Z,101096.62
2019-03-18T06:33:45.733Z,101107.23
2019-03-18T06:36:17.099Z,101115.24
2019-03-18T06:38:48.420Z,101109.09
2019-03-18T06:41:19.564Z,101111.72
2019-03-18T06:43:52.597Z,101115.14
2019-03-18T06:46:23.881Z,101112.16
2019-03-18T06:48:55.124Z,101108.58
2019-03-18T06:51:27.759Z,101104.29
2019-03-18T06:54:01.975Z,101107.97
2019-03-18T06:56:33.396Z,101109.92
2019-03-18T06:59:04.692Z,101112.44
2019-03-18T07:01:35.871Z,101116.81
2019-03-18T07:04:07.015Z,101116.45
2019-03-18T07:06:41.428Z,101117.86
2019-03-18T07:09:12.618Z,101110.17
2019-03-18T07:11:44.576Z,101110.17
2019-03-18T07:14:15.784Z,101106.42
2019-03-18T07:16:49.780Z,101101.98
2019-03-18T07:19:22.123Z,101097.72
2019-03-18T07:21:53.481Z,101109.09
2019-03-18T07:24:24.764Z,101113.72
2019-03-18T07:26:57.409Z,101117.19
2019-03-18T07:29:28.750Z,101124.12
2019-03-18T07:32:03.023Z,101121.89
2019-03-18T07:34:34.506Z,101122.86
2019-03-18T07:37:05.751Z,101133.06
2019-03-18T07:39:36.984Z,101127.11
2019-03-18T07:42:08.209Z,101134.22
2019-03-18T07:44:39.408Z,101134.52
2019-03-18T07:47:10.796Z,101125.02
2019-03-18T07:49:42.148Z,101123.80
2019-03-18T07:52:13.474Z,101126.81
2019-03-18T07:54:44.577Z,101118.17
2019-03-18T07:57:19.782Z,101120.66
2019-03-18T07:59:51.071Z,101126.88
2019-03-18T08:02:22.348Z,101124.17
2019-03-18T08:04:53.596Z,101124.00
2019-03-18T08:07:24.731Z,101129.70
2019-03-18T08:09:55.985Z,101130.90
2019-03-18T08:12:28.481Z,101121.56
2019-03-18T08:14:59.808Z,101127.18
2019-03-18T08:17:31.151Z,101124.46
2019-03-18T08:20:03.553Z,101125.70
2019-03-18T08:22:34.986Z,101125.34
2019-03-18T08:25:07.916Z,101124.33
2019-03-18T08:27:40.898Z,101122.44
2019-03-18T08:30:17.162Z,101115.51
2019-03-18T08:32:48.391Z,101116.44
2019-03-18T08:35:19.591Z,101118.38
2019-03-18T08:37:50.976Z,101115.68
2019-03-18T08:40:22.335Z,101116.91
2019-03-18T08:42:53.714Z,101115.20
2019-03-18T08:45:25.046Z,101114.81
2019-03-18T08:47:56.778Z,101118.32
2019-03-18T08:50:28.494Z,101109.27
2019-03-18T08:52:59.869Z,101106.96
2019-03-18T08:55:32.506Z,101111.06
2019-03-18T08:58:03.785Z,101107.33
2019-03-18T09:00:34.910Z,101110.30
2019-03-18T09:03:06.236Z,101107.81
2019-03-18T09:05:37.732Z,101122.56
2019-03-18T09:08:08.930Z,101107.22
2019-03-18T09:10:40.196Z,101124.56
2019-03-18T09:13:11.566Z,101117.52
2019-03-18T09:15:44.301Z,101119.97
2019-03-18T09:18:15.514Z,101112.14
2019-03-18T09:20:46.747Z,101106.33
2019-03-18T09:23:17.992Z,101105.11
2019-03-18T09:25:49.225Z,101106.95
2019-03-18T09:28:22.349Z,101099.00
2019-03-18T09:30:53.772Z,101107.28
2019-03-18T09:33:25.092Z,101101.10
2019-03-18T09:35:57.553Z,101107.66
2019-03-18T09:38:28.819Z,101114.00
2019-03-18T09:40:59.960Z,101111.63
2019-03-18T09:43:31.626Z,101111.54
2019-03-18T09:46:02.857Z,101113.31
2019-03-18T09:48:34.147Z,101106.56
2019-03-18T09:51:05.564Z,101112.88
2019-03-18T09:53:37.773Z,101100.06
2019-03-18T09:56:09.190Z,101104.48
2019-03-18T09:58:40.442Z,101104.70
2019-03-18T10:01:11.750Z,101109.56
2019-03-18T10:03:42.862Z,101102.47
2019-03-18T10:06:14.271Z,101111.59
2019-03-18T10:08:45.552Z,101096.20
2019-03-18T10:11:18.091Z,101089.53
2019-03-18T10:13:49.271Z,101087.16
2019-03-18T10:16:20.763Z,101086.22
2019-03-18T10:18:51.954Z,101085.30
2019-03-18T10:21:23.169Z,101098.58
2019-03-18T10:23:54.454Z,101092.27
2019-03-18T10:26:25.581Z,101089.00
2019-03-18T10:28:56.656Z,101078.02
2019-03-18T10:31:27.979Z,101081.25
2019-03-18T10:33:59.161Z,101081.34
2019-03-18T10:36:30.390Z,101085.98
2019-03-18T10:39:01.581Z,101082.61
2019-03-18T10:41:34.353Z,101085.13
2019-03-18T10:44:05.583Z,101087.44
2019-03-18T10:46:36.669Z,101089.42
2019-03-18T10:49:07.763Z,101066.97
2019-03-18T10:51:38.971Z,101068.58
2019-03-18T10:54:11.538Z,101073.94
2019-03-18T10:56:42.572Z,101080.69
2019-03-18T10:59:13.840Z,101067.56
2019-03-18T11:01:45.038Z,101069.72
2019-03-18T11:04:16.554Z,101069.28
2019-03-18T11:06:47.878Z,101059.69
2019-03-18T11:09:19.156Z,101076.41
2019-03-18T11:11:50.546Z,101068.48
2019-03-18T11:14:21.736Z,101063.09
2019-03-18T11:16:53.022Z,101068.81
2019-03-18T11:19:24.243Z,101061.53
2019-03-18T11:21:55.589Z,101057.00
2019-03-18T11:24:27.007Z,101054.56
2019-03-18T11:26:59.000Z,101059.70
2019-03-18T11:29:30.341Z,101055.99
2019-03-18T11:32:01.493Z,101067.97
2019-03-18T11:34:33.253Z,101054.75
2019-03-18T11:37:04.462Z,101051.50
2019-03-18T11:39:35.701Z,101046.55
2019-03-18T11:42:06.830Z,101042.73
2019-03-18T11:44:38.128Z,101045.25
2019-03-18T11:47:09.421Z,101040.20
2019-03-18T11:49:40.645Z,101047.25
2019-03-18T11:52:11.803Z,101035.49
2019-03-18T11:54:43.054Z,101040.52
2019-03-18T11:57:14.373Z,101034.47
2019-03-18T11:59:46.786Z,101034.78
2019-03-18T12:02:27.271Z,101026.73
2019-03-18T12:04:51.423Z,101041.08
2019-03-18T12:07:23.017Z,101036.73
2019-03-18T12:09:54.457Z,101028.42
2019-03-18T12:12:25.657Z,101027.39
2019-03-18T12:14:56.912Z,101031.96
2019-03-18T12:17:30.489Z,101026.73
2019-03-18T12:20:01.721Z,101034.14
2019-03-18T12:22:35.525Z,101026.41
2019-03-18T12:25:08.530Z,101035.14
2019-03-18T12:27:39.686Z,101032.78
2019-03-18T12:30:21.759Z,101035.42
2019-03-18T12:32:53.383Z,101041.70
2019-03-18T12:35:24.661Z,101042.28
2019-03-18T12:37:55.981Z,101037.73
2019-03-18T12:40:27.293Z,101032.11
2019-03-18T12:42:58.682Z,101022.70
2019-03-18T12:45:29.865Z,101018.66
2019-03-18T12:48:01.376Z,101021.60
2019-03-18T12:50:49.040Z,101034.30
2019-03-18T12:53:05.522Z,101023.73
2019-03-18T12:55:37.362Z,101029.09
2019-03-18T12:58:08.569Z,101022.52
2019-03-18T13:00:41.038Z,101017.32
2019-03-18T13:03:13.399Z,101013.42
2019-03-18T13:05:44.489Z,101030.45
2019-03-18T13:08:15.783Z,101017.80
2019-03-18T13:10:48.114Z,101022.56
2019-03-18T13:13:19.270Z,101022.84
2019-03-18T13:15:51.656Z,101016.16
2019-03-18T13:18:22.722Z,101023.54
2019-03-18T13:21:07.076Z,101016.34
2019-03-18T13:23:27.435Z,101004.77
2019-03-18T13:25:58.514Z,101002.81
2019-03-18T13:28:29.640Z,101001.42
2019-03-18T13:31:00.839Z,101009.08
2019-03-18T13:33:32.062Z,101011.31
2019-03-18T13:36:03.206Z,101017.88
2019-03-18T13:38:34.399Z,101009.38
2019-03-18T13:41:05.498Z,101010.92
2019-03-18T13:43:37.152Z,101004.63
2019-03-18T13:46:08.251Z,100998.91
2019-03-18T13:48:39.590Z,101002.50
2019-03-18T13:51:20.351Z,101012.50
2019-03-18T13:53:43.778Z,101011.05
2019-03-18T13:56:15.060Z,101001.53
2019-03-18T13:58:47.511Z,101001.32
2019-03-18T14:01:20.245Z,101006.23
2019-03-18T14:03:51.441Z,101009.31
2019-03-18T14:06:22.811Z,101009.62
2019-03-18T14:08:54.247Z,101010.08
2019-03-18T14:11:27.878Z,100998.18
2019-03-18T14:13:59.146Z,101000.44
2019-03-18T14:16:31.464Z,101007.77
2019-03-18T14:19:02.651Z,101000.56
2019-03-18T14:21:33.890Z,101003.58
2019-03-18T14:24:05.033Z,101006.22
2019-03-18T14:26:36.418Z,101008.28
2019-03-18T14:29:07.629Z,101005.48
2019-03-18T14:31:38.830Z,101007.60
2019-03-18T14:34:09.933Z,101009.33
2019-03-18T14:36:41.270Z,101002.14
2019-03-18T14:39:12.525Z,101003.24
2019-03-18T14:41:44.046Z,101011.19
2019-03-18T14:44:15.383Z,101006.56
2019-03-18T14:46:47.264Z,101013.30
2019-03-18T14:49:18.660Z,101020.91
2019-03-18T14:51:49.861Z,101019.19
2019-03-18T14:54:21.057Z,101013.30
2019-03-18T14:56:52.399Z,101012.84
2019-03-18T14:59:23.638Z,101026.78
2019-03-18T15:01:54.947Z,101026.45
2019-03-18T15:04:26.198Z,101027.28
2019-03-18T15:06:57.390Z,101031.81
2019-03-18T15:09:28.623Z,101034.73
2019-03-18T15:11:59.924Z,101037.74
2019-03-18T15:14:31.292Z,101046.56
2019-03-18T15:17:02.669Z,101044.33
2019-03-18T15:19:33.940Z,101055.54
2019-03-18T15:22:06.045Z,101057.56
2019-03-18T15:24:37.810Z,101059.07
2019-03-18T15:27:09.083Z,101059.55
2019-03-18T15:29:41.495Z,101054.33
2019-03-18T15:32:12.700Z,101055.21
2019-03-18T15:34:43.980Z,101067.66
2019-03-18T15:37:15.289Z,101069.30
2019-03-18T15:39:47.743Z,101075.23
2019-03-18T15:42:19.105Z,101072.70
2019-03-18T15:44:50.494Z,101082.50
2019-03-18T15:47:23.907Z,101083.72
2019-03-18T15:49:55.139Z,101091.47
2019-03-18T15:52:27.526Z,101085.70
2019-03-18T15:54:58.803Z,101083.31
2019-03-18T15:57:30.201Z,101088.87
2019-03-18T16:00:01.382Z,101090.98
2019-03-18T16:02:32.698Z,101090.52
2019-03-18T16:05:04.823Z,101094.63
2019-03-18T16:07:36.057Z,101103.59
2019-03-18T16:10:18.794Z,101101.94
2019-03-18T16:12:51.225Z,101101.16
2019-03-18T16:15:23.126Z,101102.39
2019-03-18T16:17:54.397Z,101103.14
2019-03-18T16:20:27.075Z,101098.80
2019-03-18T16:22:58.216Z,101108.45
2019-03-18T16:25:29.501Z,101115.75
2019-03-18T16:28:00.749Z,101118.27
2019-03-18T16:30:32.216Z,101122.97
2019-03-18T16:33:03.421Z,101119.06
2019-03-18T16:35:34.722Z,101119.34
2019-03-18T16:38:06.071Z,101124.34
2019-03-18T16:40:37.433Z,101132.06
2019-03-18T16:43:08.768Z,101135.52
2019-03-18T16:45:40.049Z,101132.61
2019-03-18T16:48:12.578Z,101130.31
2019-03-18T16:50:43.899Z,101137.58
2019-03-18T16:53:20.791Z,101139.44
2019-03-18T16:55:53.951Z,101151.84
2019-03-18T16:58:25.268Z,101147.70
2019-03-18T17:00:56.944Z,101152.72
2019-03-18T17:03:28.201Z,101161.33
2019-03-18T17:06:01.126Z,101154.69
2019-03-18T17:08:32.421Z,101154.44
2019-03-18T17:11:04.833Z,101158.64
2019-03-18T17:13:37.425Z,101157.58
2019-03-18T17:16:13.049Z,101161.66
2019-03-18T17:18:44.046Z,101163.61
2019-03-18T17:21:16.505Z,101170.86
2019-03-18T17:23:47.724Z,101174.09
2019-03-18T17:26:19.009Z,101174.33
2019-03-18T17:28:50.243Z,101184.58
2019-03-18T17:31:21.463Z,101176.88
2019-03-18T17:33:54.210Z,101182.59
2019-03-18T17:36:25.561Z,101183.38
2019-03-18T17:38:56.967Z,101178.87
2019-03-18T17:41:28.307Z,101178.48
2019-03-18T17:43:59.626Z,101189.70
2019-03-18T17:46:31.662Z,101187.07
2019-03-18T17:49:03.025Z,101189.70
2019-03-18T17:51:37.135Z,101188.78
2019-03-18T17:54:08.322Z,101201.84
2019-03-18T17:56:39.617Z,101191.69
2019-03-18T17:59:12.888Z,101195.24
2019-03-18T18:01:44.577Z,101194.95
2019-03-18T18:04:15.950Z,101199.98
2019-03-18T18:06:47.272Z,101200.84
2019-03-18T18:09:18.560Z,101201.27
2019-03-18T18:11:51.463Z,101207.55
2019-03-18T18:14:22.705Z,101209.64
2019-03-18T18:16:54.023Z,101225.54
2019-03-18T18:19:38.440Z,101226.85
2019-03-18T18:22:11.479Z,101228.07
2019-03-18T18:24:42.816Z,101232.83
2019-03-18T18:27:14.918Z,101234.70
2019-03-18T18:29:50.731Z,101236.11
2019-03-18T18:32:22.571Z,101239.75
2019-03-18T18:34:53.920Z,101243.16
2019-03-18T18:37:25.442Z,101245.65
2019-03-18T18:39:59.485Z,101253.86
2019-03-18T18:42:31.394Z,101256.94
2019-03-18T18:45:03.661Z,101257.00
2019-03-18T18:47:36.614Z,101256.44
2019-03-18T18:50:09.953Z,101251.09
2019-03-18T18:52:41.214Z,101255.89
2019-03-18T18:55:14.643Z,101258.06
2019-03-18T18:57:45.883Z,101259.86
2019-03-18T19:00:21.417Z,101263.19
2019-03-18T19:02:52.739Z,101259.06
2019-03-18T19:05:25.594Z,101258.78
2019-03-18T19:07:57.697Z,101261.50
2019-03-18T19:10:30.631Z,101265.16
2019-03-18T19:13:01.959Z,101258.66
2019-03-18T19:15:40.544Z,101256.18
